sensor_id;sensor_type;location;lat;lon;timestamp;P1;durP1;ratioP1;P2;durP2;ratioP2
3597;SDS011;1813;52.016;8.714;2023-04-30T00:01:44;11.60;;;8.73;;
3597;SDS011;1813;52.016;8.714;2023-04-30T00:04:19;17.43;;;9.20;;
3597;SDS011;1813;52.016;8.714;2023-04-30T00:06:53;14.47;;;10.10;;
3597;SDS011;1813;52.016;8.714;2023-04-30T00:09:32;12.73;;;9.03;;
3597;SDS011;1813;52.016;8.714;2023-04-30T00:12:06;18.93;;;8.73;;
3597;SDS011;1813;52.016;8.714;2023-04-30T00:14:40;10.83;;;7.57;;
3597;SDS011;1813;52.016;8.714;2023-04-30T00:17:14;13.80;;;8.10;;
3597;SDS011;1813;52.016;8.714;2023-04-30T00:19:49;9.70;;;7.30;;
3597;SDS011;1813;52.016;8.714;2023-04-30T00:22:23;11.63;;;7.93;;
3597;SDS011;1813;52.016;8.714;2023-04-30T00:25:00;17.40;;;9.30;;
3597;SDS011;1813;52.016;8.714;2023-04-30T00:27:34;13.63;;;9.60;;
3597;SDS011;1813;52.016;8.714;2023-04-30T00:30:09;16.80;;;10.00;;
3597;SDS011;1813;52.016;8.714;2023-04-30T00:32:44;11.70;;;8.50;;
3597;SDS011;1813;52.016;8.714;2023-04-30T00:35:18;11.20;;;8.27;;
3597;SDS011;1813;52.016;8.714;2023-04-30T00:37:52;15.90;;;10.43;;
3597;SDS011;1813;52.016;8.714;2023-04-30T00:40:29;14.33;;;10.13;;
3597;SDS011;1813;52.016;8.714;2023-04-30T00:43:04;10.97;;;8.40;;
3597;SDS011;1813;52.016;8.714;2023-04-30T00:45:38;17.73;;;10.20;;
3597;SDS011;1813;52.016;8.714;2023-04-30T00:48:12;13.33;;;9.20;;
3597;SDS011;1813;52.016;8.714;2023-04-30T00:50:47;15.77;;;9.10;;
3597;SDS011;1813;52.016;8.714;2023-04-30T00:53:21;11.83;;;8.93;;
3597;SDS011;1813;52.016;8.714;2023-04-30T00:55:58;14.17;;;9.53;;
3597;SDS011;1813;52.016;8.714;2023-04-30T00:58:33;15.30;;;10.77;;
3597;SDS011;1813;52.016;8.714;2023-04-30T01:01:08;14.73;;;10.23;;
3597;SDS011;1813;52.016;8.714;2023-04-30T01:03:42;15.00;;;10.40;;
3597;SDS011;1813;52.016;8.714;2023-04-30T01:06:17;15.23;;;10.17;;
3597;SDS011;1813;52.016;8.714;2023-04-30T01:08:52;15.93;;;9.70;;
3597;SDS011;1813;52.016;8.714;2023-04-30T01:11:31;18.50;;;10.60;;
3597;SDS011;1813;52.016;8.714;2023-04-30T01:14:18;15.77;;;10.00;;
3597;SDS011;1813;52.016;8.714;2023-04-30T01:17:01;16.03;;;10.27;;
3597;SDS011;1813;52.016;8.714;2023-04-30T01:19:49;14.07;;;10.00;;
3597;SDS011;1813;52.016;8.714;2023-04-30T01:22:29;17.50;;;10.00;;
3597;SDS011;1813;52.016;8.714;2023-04-30T01:28:20;20.10;;;11.20;;
3597;SDS011;1813;52.016;8.714;2023-04-30T01:30:56;16.63;;;10.93;;
3597;SDS011;1813;52.016;8.714;2023-04-30T01:33:31;15.93;;;10.30;;
3597;SDS011;1813;52.016;8.714;2023-04-30T01:36:12;18.93;;;10.40;;
3597;SDS011;1813;52.016;8.714;2023-04-30T01:39:02;16.30;;;10.50;;
3597;SDS011;1813;52.016;8.714;2023-04-30T01:41:49;19.60;;;10.80;;
3597;SDS011;1813;52.016;8.714;2023-04-30T01:44:39;17.83;;;10.30;;
3597;SDS011;1813;52.016;8.714;2023-04-30T01:47:23;17.00;;;10.10;;
3597;SDS011;1813;52.016;8.714;2023-04-30T01:50:11;15.90;;;10.50;;
3597;SDS011;1813;52.016;8.714;2023-04-30T01:52:54;14.20;;;10.37;;
3597;SDS011;1813;52.016;8.714;2023-04-30T01:55:33;19.10;;;11.00;;
3597;SDS011;1813;52.016;8.714;2023-04-30T01:58:11;16.40;;;11.30;;
3597;SDS011;1813;52.016;8.714;2023-04-30T02:00:50;17.97;;;11.37;;
3597;SDS011;1813;52.016;8.714;2023-04-30T02:03:25;22.43;;;11.77;;
3597;SDS011;1813;52.016;8.714;2023-04-30T02:06:00;16.53;;;10.70;;
3597;SDS011;1813;52.016;8.714;2023-04-30T02:08:35;14.73;;;10.00;;
3597;SDS011;1813;52.016;8.714;2023-04-30T02:11:09;15.90;;;10.30;;
3597;SDS011;1813;52.016;8.714;2023-04-30T02:13:43;21.27;;;10.73;;
3597;SDS011;1813;52.016;8.714;2023-04-30T02:16:20;20.57;;;11.23;;
3597;SDS011;1813;52.016;8.714;2023-04-30T02:18:54;19.17;;;11.23;;
3597;SDS011;1813;52.016;8.714;2023-04-30T02:21:28;14.63;;;10.60;;
3597;SDS011;1813;52.016;8.714;2023-04-30T02:24:02;19.00;;;11.57;;
3597;SDS011;1813;52.016;8.714;2023-04-30T02:26:36;17.87;;;10.77;;
3597;SDS011;1813;52.016;8.714;2023-04-30T02:29:11;17.77;;;10.30;;
3597;SDS011;1813;52.016;8.714;2023-04-30T02:31:48;20.60;;;10.63;;
3597;SDS011;1813;52.016;8.714;2023-04-30T02:34:22;12.60;;;10.03;;
3597;SDS011;1813;52.016;8.714;2023-04-30T02:36:58;18.40;;;10.70;;
3597;SDS011;1813;52.016;8.714;2023-04-30T02:39:33;17.30;;;10.50;;
3597;SDS011;1813;52.016;8.714;2023-04-30T02:42:07;18.97;;;10.20;;
3597;SDS011;1813;52.016;8.714;2023-04-30T02:44:42;22.20;;;10.67;;
3597;SDS011;1813;52.016;8.714;2023-04-30T02:47:18;15.13;;;9.27;;
3597;SDS011;1813;52.016;8.714;2023-04-30T02:49:53;15.53;;;10.30;;
3597;SDS011;1813;52.016;8.714;2023-04-30T02:52:28;16.97;;;9.70;;
3597;SDS011;1813;52.016;8.714;2023-04-30T02:55:02;22.00;;;10.53;;
3597;SDS011;1813;52.016;8.714;2023-04-30T02:57:37;13.43;;;9.83;;
3597;SDS011;1813;52.016;8.714;2023-04-30T03:00:12;12.90;;;9.07;;
3597;SDS011;1813;52.016;8.714;2023-04-30T03:02:49;15.33;;;10.07;;
3597;SDS011;1813;52.016;8.714;2023-04-30T03:05:24;19.90;;;10.40;;
3597;SDS011;1813;52.016;8.714;2023-04-30T03:07:59;18.47;;;10.63;;
3597;SDS011;1813;52.016;8.714;2023-04-30T03:10:33;16.63;;;10.80;;
3597;SDS011;1813;52.016;8.714;2023-04-30T03:13:08;14.63;;;10.93;;
3597;SDS011;1813;52.016;8.714;2023-04-30T03:15:44;13.80;;;10.50;;
3597;SDS011;1813;52.016;8.714;2023-04-30T03:18:21;14.27;;;9.80;;
3597;SDS011;1813;52.016;8.714;2023-04-30T03:20:56;21.13;;;11.27;;
3597;SDS011;1813;52.016;8.714;2023-04-30T03:23:30;21.80;;;10.97;;
3597;SDS011;1813;52.016;8.714;2023-04-30T03:26:05;15.00;;;11.03;;
3597;SDS011;1813;52.016;8.714;2023-04-30T03:28:39;14.10;;;10.03;;
3597;SDS011;1813;52.016;8.714;2023-04-30T03:31:14;21.23;;;9.13;;
3597;SDS011;1813;52.016;8.714;2023-04-30T03:33:51;13.67;;;10.43;;
3597;SDS011;1813;52.016;8.714;2023-04-30T03:36:25;15.63;;;9.70;;
3597;SDS011;1813;52.016;8.714;2023-04-30T03:39:00;15.33;;;9.67;;
3597;SDS011;1813;52.016;8.714;2023-04-30T03:41:39;14.87;;;9.40;;
3597;SDS011;1813;52.016;8.714;2023-04-30T03:44:13;14.80;;;9.80;;
3597;SDS011;1813;52.016;8.714;2023-04-30T03:46:48;19.47;;;11.30;;
3597;SDS011;1813;52.016;8.714;2023-04-30T03:49:25;15.47;;;10.60;;
3597;SDS011;1813;52.016;8.714;2023-04-30T03:51:59;15.23;;;8.93;;
3597;SDS011;1813;52.016;8.714;2023-04-30T03:54:36;12.23;;;9.40;;
3597;SDS011;1813;52.016;8.714;2023-04-30T03:57:11;16.87;;;10.50;;
3597;SDS011;1813;52.016;8.714;2023-04-30T03:59:45;17.77;;;10.97;;
3597;SDS011;1813;52.016;8.714;2023-04-30T04:02:20;19.90;;;12.60;;
3597;SDS011;1813;52.016;8.714;2023-04-30T04:04:58;20.30;;;12.00;;
3597;SDS011;1813;52.016;8.714;2023-04-30T04:07:32;15.67;;;10.60;;
3597;SDS011;1813;52.016;8.714;2023-04-30T04:10:07;20.50;;;12.10;;
3597;SDS011;1813;52.016;8.714;2023-04-30T04:12:41;15.17;;;10.40;;
3597;SDS011;1813;52.016;8.714;2023-04-30T04:15:15;19.50;;;11.10;;
3597;SDS011;1813;52.016;8.714;2023-04-30T04:17:50;19.30;;;11.90;;
3597;SDS011;1813;52.016;8.714;2023-04-30T04:20:27;21.07;;;12.20;;
3597;SDS011;1813;52.016;8.714;2023-04-30T04:23:01;21.07;;;12.17;;
3597;SDS011;1813;52.016;8.714;2023-04-30T04:25:36;24.57;;;12.27;;
3597;SDS011;1813;52.016;8.714;2023-04-30T04:28:11;19.90;;;12.33;;
3597;SDS011;1813;52.016;8.714;2023-04-30T04:30:45;17.67;;;11.60;;
3597;SDS011;1813;52.016;8.714;2023-04-30T04:33:22;18.57;;;12.33;;
3597;SDS011;1813;52.016;8.714;2023-04-30T04:36:00;20.20;;;12.47;;
3597;SDS011;1813;52.016;8.714;2023-04-30T04:38:34;21.87;;;13.30;;
3597;SDS011;1813;52.016;8.714;2023-04-30T04:41:08;19.90;;;14.40;;
3597;SDS011;1813;52.016;8.714;2023-04-30T04:43:46;22.60;;;14.27;;
3597;SDS011;1813;52.016;8.714;2023-04-30T04:46:23;24.87;;;14.00;;
3597;SDS011;1813;52.016;8.714;2023-04-30T04:48:58;27.10;;;15.37;;
3597;SDS011;1813;52.016;8.714;2023-04-30T04:51:35;23.10;;;14.87;;
3597;SDS011;1813;52.016;8.714;2023-04-30T04:54:11;26.20;;;15.07;;
3597;SDS011;1813;52.016;8.714;2023-04-30T04:56:45;28.20;;;14.53;;
3597;SDS011;1813;52.016;8.714;2023-04-30T04:59:19;26.93;;;15.40;;
3597;SDS011;1813;52.016;8.714;2023-04-30T05:01:55;24.53;;;15.10;;
3597;SDS011;1813;52.016;8.714;2023-04-30T05:04:32;25.40;;;14.60;;
3597;SDS011;1813;52.016;8.714;2023-04-30T05:07:09;22.83;;;14.63;;
3597;SDS011;1813;52.016;8.714;2023-04-30T05:09:43;32.00;;;17.10;;
3597;SDS011;1813;52.016;8.714;2023-04-30T05:12:18;29.57;;;17.00;;
3597;SDS011;1813;52.016;8.714;2023-04-30T05:14:52;25.50;;;16.40;;
3597;SDS011;1813;52.016;8.714;2023-04-30T05:17:26;25.90;;;17.13;;
3597;SDS011;1813;52.016;8.714;2023-04-30T05:20:00;34.90;;;18.33;;
3597;SDS011;1813;52.016;8.714;2023-04-30T05:22:39;37.17;;;18.60;;
3597;SDS011;1813;52.016;8.714;2023-04-30T05:25:13;33.13;;;17.27;;
3597;SDS011;1813;52.016;8.714;2023-04-30T05:27:47;30.20;;;17.50;;
3597;SDS011;1813;52.016;8.714;2023-04-30T05:30:22;39.30;;;18.13;;
3597;SDS011;1813;52.016;8.714;2023-04-30T05:32:57;29.30;;;18.30;;
3597;SDS011;1813;52.016;8.714;2023-04-30T05:35:31;30.33;;;18.90;;
3597;SDS011;1813;52.016;8.714;2023-04-30T05:38:09;28.13;;;18.27;;
3597;SDS011;1813;52.016;8.714;2023-04-30T05:40:43;26.30;;;17.73;;
3597;SDS011;1813;52.016;8.714;2023-04-30T05:43:18;28.87;;;17.57;;
3597;SDS011;1813;52.016;8.714;2023-04-30T05:45:52;27.20;;;16.70;;
3597;SDS011;1813;52.016;8.714;2023-04-30T05:48:26;29.00;;;17.70;;
3597;SDS011;1813;52.016;8.714;2023-04-30T05:51:01;24.63;;;17.10;;
3597;SDS011;1813;52.016;8.714;2023-04-30T05:53:38;29.73;;;17.57;;
3597;SDS011;1813;52.016;8.714;2023-04-30T05:56:12;29.93;;;17.70;;
3597;SDS011;1813;52.016;8.714;2023-04-30T05:58:46;26.03;;;14.90;;
3597;SDS011;1813;52.016;8.714;2023-04-30T06:01:22;24.30;;;14.33;;
3597;SDS011;1813;52.016;8.714;2023-04-30T06:03:58;28.90;;;14.00;;
3597;SDS011;1813;52.016;8.714;2023-04-30T06:06:34;24.60;;;13.67;;
3597;SDS011;1813;52.016;8.714;2023-04-30T06:09:11;21.03;;;13.57;;
3597;SDS011;1813;52.016;8.714;2023-04-30T06:11:45;31.43;;;12.80;;
3597;SDS011;1813;52.016;8.714;2023-04-30T06:14:21;29.07;;;13.67;;
3597;SDS011;1813;52.016;8.714;2023-04-30T06:16:55;23.00;;;12.00;;
3597;SDS011;1813;52.016;8.714;2023-04-30T06:19:32;19.33;;;10.90;;
3597;SDS011;1813;52.016;8.714;2023-04-30T06:22:08;18.10;;;11.17;;
3597;SDS011;1813;52.016;8.714;2023-04-30T06:24:45;16.13;;;9.77;;
3597;SDS011;1813;52.016;8.714;2023-04-30T06:27:19;19.47;;;10.10;;
3597;SDS011;1813;52.016;8.714;2023-04-30T06:29:54;20.00;;;9.57;;
3597;SDS011;1813;52.016;8.714;2023-04-30T06:32:30;27.23;;;8.63;;
3597;SDS011;1813;52.016;8.714;2023-04-30T06:35:04;20.03;;;9.10;;
3597;SDS011;1813;52.016;8.714;2023-04-30T06:37:40;23.00;;;9.17;;
3597;SDS011;1813;52.016;8.714;2023-04-30T06:40:16;19.83;;;7.80;;
3597;SDS011;1813;52.016;8.714;2023-04-30T06:42:51;15.17;;;7.20;;
3597;SDS011;1813;52.016;8.714;2023-04-30T06:45:25;13.63;;;6.60;;
3597;SDS011;1813;52.016;8.714;2023-04-30T06:47:59;12.27;;;6.47;;
3597;SDS011;1813;52.016;8.714;2023-04-30T06:50:36;17.63;;;6.70;;
3597;SDS011;1813;52.016;8.714;2023-04-30T06:53:14;14.40;;;5.90;;
3597;SDS011;1813;52.016;8.714;2023-04-30T06:55:53;16.83;;;5.33;;
3597;SDS011;1813;52.016;8.714;2023-04-30T06:58:30;16.37;;;6.43;;
3597;SDS011;1813;52.016;8.714;2023-04-30T07:01:04;14.97;;;5.37;;
3597;SDS011;1813;52.016;8.714;2023-04-30T07:03:38;14.30;;;5.40;;
3597;SDS011;1813;52.016;8.714;2023-04-30T07:06:12;13.90;;;5.17;;
3597;SDS011;1813;52.016;8.714;2023-04-30T07:08:46;14.73;;;5.50;;
3597;SDS011;1813;52.016;8.714;2023-04-30T07:11:24;11.47;;;4.73;;
3597;SDS011;1813;52.016;8.714;2023-04-30T07:13:58;14.60;;;4.63;;
3597;SDS011;1813;52.016;8.714;2023-04-30T07:16:33;12.63;;;5.00;;
3597;SDS011;1813;52.016;8.714;2023-04-30T07:19:07;14.70;;;4.73;;
3597;SDS011;1813;52.016;8.714;2023-04-30T07:21:41;12.23;;;4.27;;
3597;SDS011;1813;52.016;8.714;2023-04-30T07:24:15;11.83;;;4.53;;
3597;SDS011;1813;52.016;8.714;2023-04-30T07:26:52;11.60;;;4.60;;
3597;SDS011;1813;52.016;8.714;2023-04-30T07:29:28;13.63;;;5.00;;
3597;SDS011;1813;52.016;8.714;2023-04-30T07:32:02;12.97;;;4.50;;
3597;SDS011;1813;52.016;8.714;2023-04-30T07:34:37;11.80;;;4.33;;
3597;SDS011;1813;52.016;8.714;2023-04-30T07:37:11;15.33;;;5.07;;
3597;SDS011;1813;52.016;8.714;2023-04-30T07:39:46;12.50;;;5.13;;
3597;SDS011;1813;52.016;8.714;2023-04-30T07:42:23;11.60;;;5.10;;
3597;SDS011;1813;52.016;8.714;2023-04-30T07:44:57;15.07;;;4.60;;
3597;SDS011;1813;52.016;8.714;2023-04-30T07:47:33;16.50;;;5.10;;
3597;SDS011;1813;52.016;8.714;2023-04-30T07:50:09;11.70;;;4.30;;
3597;SDS011;1813;52.016;8.714;2023-04-30T07:52:44;10.50;;;4.97;;
3597;SDS011;1813;52.016;8.714;2023-04-30T07:55:22;14.60;;;5.13;;
3597;SDS011;1813;52.016;8.714;2023-04-30T07:57:59;14.20;;;5.53;;
3597;SDS011;1813;52.016;8.714;2023-04-30T08:00:33;16.07;;;5.57;;
3597;SDS011;1813;52.016;8.714;2023-04-30T08:03:07;13.37;;;5.00;;
3597;SDS011;1813;52.016;8.714;2023-04-30T08:05:42;11.43;;;4.80;;
3597;SDS011;1813;52.016;8.714;2023-04-30T08:08:16;10.43;;;4.97;;
3597;SDS011;1813;52.016;8.714;2023-04-30T08:10:51;11.13;;;5.10;;
3597;SDS011;1813;52.016;8.714;2023-04-30T08:13:28;11.57;;;4.80;;
3597;SDS011;1813;52.016;8.714;2023-04-30T08:16:02;13.10;;;5.73;;
3597;SDS011;1813;52.016;8.714;2023-04-30T08:18:36;13.60;;;5.50;;
3597;SDS011;1813;52.016;8.714;2023-04-30T08:21:13;13.80;;;5.27;;
3597;SDS011;1813;52.016;8.714;2023-04-30T08:23:48;11.40;;;4.73;;
3597;SDS011;1813;52.016;8.714;2023-04-30T08:26:24;14.80;;;5.90;;
3597;SDS011;1813;52.016;8.714;2023-04-30T08:29:01;15.53;;;5.37;;
3597;SDS011;1813;52.016;8.714;2023-04-30T08:31:38;11.27;;;4.70;;
3597;SDS011;1813;52.016;8.714;2023-04-30T08:34:12;15.50;;;4.90;;
3597;SDS011;1813;52.016;8.714;2023-04-30T08:36:47;12.80;;;4.70;;
3597;SDS011;1813;52.016;8.714;2023-04-30T08:39:22;12.30;;;4.60;;
3597;SDS011;1813;52.016;8.714;2023-04-30T08:41:57;12.70;;;4.93;;
3597;SDS011;1813;52.016;8.714;2023-04-30T08:44:38;12.40;;;4.20;;
3597;SDS011;1813;52.016;8.714;2023-04-30T08:47:16;13.23;;;5.00;;
3597;SDS011;1813;52.016;8.714;2023-04-30T08:49:53;15.73;;;4.90;;
3597;SDS011;1813;52.016;8.714;2023-04-30T08:52:27;11.50;;;4.40;;
3597;SDS011;1813;52.016;8.714;2023-04-30T08:55:07;11.50;;;4.27;;
3597;SDS011;1813;52.016;8.714;2023-04-30T08:57:44;15.00;;;4.60;;
3597;SDS011;1813;52.016;8.714;2023-04-30T09:00:23;10.37;;;4.47;;
3597;SDS011;1813;52.016;8.714;2023-04-30T09:02:57;10.03;;;4.47;;
3597;SDS011;1813;52.016;8.714;2023-04-30T09:05:33;9.40;;;4.40;;
3597;SDS011;1813;52.016;8.714;2023-04-30T09:08:07;9.87;;;4.20;;
3597;SDS011;1813;52.016;8.714;2023-04-30T09:10:42;12.30;;;4.27;;
3597;SDS011;1813;52.016;8.714;2023-04-30T09:13:16;8.57;;;3.87;;
3597;SDS011;1813;52.016;8.714;2023-04-30T09:15:54;14.07;;;4.33;;
3597;SDS011;1813;52.016;8.714;2023-04-30T09:18:37;12.03;;;4.27;;
3597;SDS011;1813;52.016;8.714;2023-04-30T09:21:12;9.90;;;4.30;;
3597;SDS011;1813;52.016;8.714;2023-04-30T09:23:53;8.50;;;4.30;;
3597;SDS011;1813;52.016;8.714;2023-04-30T09:26:32;12.27;;;4.23;;
3597;SDS011;1813;52.016;8.714;2023-04-30T09:29:10;12.07;;;3.97;;
3597;SDS011;1813;52.016;8.714;2023-04-30T09:31:48;7.73;;;3.90;;
3597;SDS011;1813;52.016;8.714;2023-04-30T09:34:22;8.47;;;4.03;;
3597;SDS011;1813;52.016;8.714;2023-04-30T09:37:06;12.40;;;4.20;;
3597;SDS011;1813;52.016;8.714;2023-04-30T09:39:49;8.17;;;3.93;;
3597;SDS011;1813;52.016;8.714;2023-04-30T09:42:26;7.27;;;3.73;;
3597;SDS011;1813;52.016;8.714;2023-04-30T09:45:00;8.00;;;3.70;;
3597;SDS011;1813;52.016;8.714;2023-04-30T09:47:40;7.00;;;3.60;;
3597;SDS011;1813;52.016;8.714;2023-04-30T09:50:14;10.13;;;4.00;;
3597;SDS011;1813;52.016;8.714;2023-04-30T09:52:51;9.47;;;3.73;;
3597;SDS011;1813;52.016;8.714;2023-04-30T09:55:26;7.60;;;4.00;;
3597;SDS011;1813;52.016;8.714;2023-04-30T09:58:01;11.23;;;4.40;;
3597;SDS011;1813;52.016;8.714;2023-04-30T10:00:37;9.80;;;4.27;;
3597;SDS011;1813;52.016;8.714;2023-04-30T10:03:15;6.50;;;3.43;;
3597;SDS011;1813;52.016;8.714;2023-04-30T10:05:49;10.77;;;3.63;;
3597;SDS011;1813;52.016;8.714;2023-04-30T10:08:26;12.20;;;3.80;;
3597;SDS011;1813;52.016;8.714;2023-04-30T10:11:03;14.60;;;3.60;;
3597;SDS011;1813;52.016;8.714;2023-04-30T10:13:40;12.20;;;3.93;;
3597;SDS011;1813;52.016;8.714;2023-04-30T10:16:18;12.93;;;3.50;;
3597;SDS011;1813;52.016;8.714;2023-04-30T10:19:06;6.37;;;3.37;;
3597;SDS011;1813;52.016;8.714;2023-04-30T10:21:46;9.90;;;3.30;;
3597;SDS011;1813;52.016;8.714;2023-04-30T10:24:20;15.50;;;3.47;;
3597;SDS011;1813;52.016;8.714;2023-04-30T10:26:55;8.23;;;3.10;;
3597;SDS011;1813;52.016;8.714;2023-04-30T10:29:29;7.50;;;2.83;;
3597;SDS011;1813;52.016;8.714;2023-04-30T10:32:04;9.20;;;3.60;;
3597;SDS011;1813;52.016;8.714;2023-04-30T10:34:45;7.60;;;3.50;;
3597;SDS011;1813;52.016;8.714;2023-04-30T10:37:23;10.10;;;3.67;;
3597;SDS011;1813;52.016;8.714;2023-04-30T10:40:04;9.90;;;3.50;;
3597;SDS011;1813;52.016;8.714;2023-04-30T10:42:44;10.20;;;3.70;;
3597;SDS011;1813;52.016;8.714;2023-04-30T10:45:19;7.80;;;3.37;;
3597;SDS011;1813;52.016;8.714;2023-04-30T10:48:08;7.97;;;3.17;;
3597;SDS011;1813;52.016;8.714;2023-04-30T10:50:45;10.13;;;3.00;;
3597;SDS011;1813;52.016;8.714;2023-04-30T10:53:22;12.73;;;2.70;;
3597;SDS011;1813;52.016;8.714;2023-04-30T10:55:59;5.77;;;2.37;;
3597;SDS011;1813;52.016;8.714;2023-04-30T10:58:37;5.50;;;2.77;;
3597;SDS011;1813;52.016;8.714;2023-04-30T11:01:13;7.50;;;2.80;;
3597;SDS011;1813;52.016;8.714;2023-04-30T11:04:02;10.57;;;3.00;;
3597;SDS011;1813;52.016;8.714;2023-04-30T11:06:53;11.00;;;3.70;;
3597;SDS011;1813;52.016;8.714;2023-04-30T11:09:36;10.00;;;3.07;;
3597;SDS011;1813;52.016;8.714;2023-04-30T11:12:13;10.80;;;3.30;;
3597;SDS011;1813;52.016;8.714;2023-04-30T11:14:59;6.10;;;2.50;;
3597;SDS011;1813;52.016;8.714;2023-04-30T11:17:41;5.63;;;2.23;;
3597;SDS011;1813;52.016;8.714;2023-04-30T11:20:18;6.80;;;2.30;;
3597;SDS011;1813;52.016;8.714;2023-04-30T11:25:47;6.77;;;2.30;;
3597;SDS011;1813;52.016;8.714;2023-04-30T11:28:22;5.70;;;1.90;;
3597;SDS011;1813;52.016;8.714;2023-04-30T11:30:57;3.93;;;1.77;;
3597;SDS011;1813;52.016;8.714;2023-04-30T11:33:32;3.57;;;1.90;;
3597;SDS011;1813;52.016;8.714;2023-04-30T11:36:07;3.10;;;1.70;;
3597;SDS011;1813;52.016;8.714;2023-04-30T11:38:44;5.43;;;1.70;;
3597;SDS011;1813;52.016;8.714;2023-04-30T11:41:19;3.43;;;1.80;;
3597;SDS011;1813;52.016;8.714;2023-04-30T11:43:56;3.77;;;2.20;;
3597;SDS011;1813;52.016;8.714;2023-04-30T11:46:31;4.60;;;2.00;;
3597;SDS011;1813;52.016;8.714;2023-04-30T11:49:05;4.20;;;2.00;;
3597;SDS011;1813;52.016;8.714;2023-04-30T11:51:41;5.37;;;1.97;;
3597;SDS011;1813;52.016;8.714;2023-04-30T11:54:18;8.93;;;2.50;;
3597;SDS011;1813;52.016;8.714;2023-04-30T11:56:52;7.67;;;2.53;;
3597;SDS011;1813;52.016;8.714;2023-04-30T11:59:40;6.37;;;2.77;;
3597;SDS011;1813;52.016;8.714;2023-04-30T12:02:15;5.23;;;2.43;;
3597;SDS011;1813;52.016;8.714;2023-04-30T12:04:52;4.63;;;2.80;;
3597;SDS011;1813;52.016;8.714;2023-04-30T12:07:28;5.57;;;2.37;;
3597;SDS011;1813;52.016;8.714;2023-04-30T12:10:08;4.77;;;2.47;;
3597;SDS011;1813;52.016;8.714;2023-04-30T12:12:43;8.83;;;2.73;;
3597;SDS011;1813;52.016;8.714;2023-04-30T12:15:20;6.30;;;2.93;;
3597;SDS011;1813;52.016;8.714;2023-04-30T12:17:56;5.33;;;2.53;;
3597;SDS011;1813;52.016;8.714;2023-04-30T12:20:31;6.10;;;2.70;;
3597;SDS011;1813;52.016;8.714;2023-04-30T12:23:06;4.53;;;2.70;;
3597;SDS011;1813;52.016;8.714;2023-04-30T12:25:43;4.80;;;2.83;;
3597;SDS011;1813;52.016;8.714;2023-04-30T12:28:18;5.80;;;2.57;;
3597;SDS011;1813;52.016;8.714;2023-04-30T12:30:52;4.27;;;2.37;;
3597;SDS011;1813;52.016;8.714;2023-04-30T12:33:30;7.60;;;2.90;;
3597;SDS011;1813;52.016;8.714;2023-04-30T12:36:08;4.70;;;2.80;;
3597;SDS011;1813;52.016;8.714;2023-04-30T12:38:45;5.90;;;2.93;;
3597;SDS011;1813;52.016;8.714;2023-04-30T12:41:22;6.10;;;2.60;;
3597;SDS011;1813;52.016;8.714;2023-04-30T12:46:52;6.30;;;2.50;;
3597;SDS011;1813;52.016;8.714;2023-04-30T12:49:32;7.93;;;2.83;;
3597;SDS011;1813;52.016;8.714;2023-04-30T12:52:09;4.70;;;2.60;;
3597;SDS011;1813;52.016;8.714;2023-04-30T12:54:45;5.13;;;2.70;;
3597;SDS011;1813;52.016;8.714;2023-04-30T12:57:22;5.60;;;2.83;;
3597;SDS011;1813;52.016;8.714;2023-04-30T12:59:57;7.07;;;2.90;;
3597;SDS011;1813;52.016;8.714;2023-04-30T13:02:35;7.60;;;3.03;;
3597;SDS011;1813;52.016;8.714;2023-04-30T13:05:09;8.80;;;3.43;;
3597;SDS011;1813;52.016;8.714;2023-04-30T13:07:43;8.30;;;3.00;;
3597;SDS011;1813;52.016;8.714;2023-04-30T13:10:19;7.63;;;2.57;;
3597;SDS011;1813;52.016;8.714;2023-04-30T13:12:57;9.93;;;3.07;;
3597;SDS011;1813;52.016;8.714;2023-04-30T13:15:31;4.60;;;2.30;;
3597;SDS011;1813;52.016;8.714;2023-04-30T13:18:07;4.07;;;2.23;;
3597;SDS011;1813;52.016;8.714;2023-04-30T13:20:41;3.00;;;1.90;;
3597;SDS011;1813;52.016;8.714;2023-04-30T13:23:16;2.90;;;2.10;;
3597;SDS011;1813;52.016;8.714;2023-04-30T13:25:50;3.70;;;1.80;;
3597;SDS011;1813;52.016;8.714;2023-04-30T13:28:28;3.90;;;1.70;;
3597;SDS011;1813;52.016;8.714;2023-04-30T13:31:02;2.10;;;1.73;;
3597;SDS011;1813;52.016;8.714;2023-04-30T13:33:36;5.50;;;1.90;;
3597;SDS011;1813;52.016;8.714;2023-04-30T13:36:11;2.60;;;1.70;;
3597;SDS011;1813;52.016;8.714;2023-04-30T13:38:45;3.10;;;1.87;;
3597;SDS011;1813;52.016;8.714;2023-04-30T13:41:19;5.03;;;2.27;;
3597;SDS011;1813;52.016;8.714;2023-04-30T13:43:58;3.13;;;1.90;;
3597;SDS011;1813;52.016;8.714;2023-04-30T13:46:33;5.33;;;2.00;;
3597;SDS011;1813;52.016;8.714;2023-04-30T13:49:07;2.70;;;1.70;;
3597;SDS011;1813;52.016;8.714;2023-04-30T13:51:44;8.40;;;2.00;;
3597;SDS011;1813;52.016;8.714;2023-04-30T13:54:18;4.30;;;2.00;;
3597;SDS011;1813;52.016;8.714;2023-04-30T13:56:52;6.37;;;1.80;;
3597;SDS011;1813;52.016;8.714;2023-04-30T13:59:29;6.10;;;2.27;;
3597;SDS011;1813;52.016;8.714;2023-04-30T14:02:03;3.87;;;2.00;;
3597;SDS011;1813;52.016;8.714;2023-04-30T14:04:37;4.50;;;2.20;;
3597;SDS011;1813;52.016;8.714;2023-04-30T14:07:11;6.43;;;2.10;;
3597;SDS011;1813;52.016;8.714;2023-04-30T14:09:46;4.93;;;2.10;;
3597;SDS011;1813;52.016;8.714;2023-04-30T14:12:22;9.60;;;2.20;;
3597;SDS011;1813;52.016;8.714;2023-04-30T14:15:00;5.53;;;2.00;;
3597;SDS011;1813;52.016;8.714;2023-04-30T14:17:35;3.97;;;2.13;;
3597;SDS011;1813;52.016;8.714;2023-04-30T14:20:10;2.97;;;1.90;;
3597;SDS011;1813;52.016;8.714;2023-04-30T14:22:45;8.20;;;2.00;;
3597;SDS011;1813;52.016;8.714;2023-04-30T14:25:19;4.83;;;2.50;;
3597;SDS011;1813;52.016;8.714;2023-04-30T14:27:54;3.23;;;2.13;;
3597;SDS011;1813;52.016;8.714;2023-04-30T14:30:31;6.50;;;2.40;;
3597;SDS011;1813;52.016;8.714;2023-04-30T14:33:05;5.43;;;2.10;;
3597;SDS011;1813;52.016;8.714;2023-04-30T14:35:41;6.77;;;2.90;;
3597;SDS011;1813;52.016;8.714;2023-04-30T14:38:16;4.33;;;2.60;;
3597;SDS011;1813;52.016;8.714;2023-04-30T14:40:50;4.33;;;2.20;;
3597;SDS011;1813;52.016;8.714;2023-04-30T14:43:24;8.97;;;2.30;;
3597;SDS011;1813;52.016;8.714;2023-04-30T14:46:03;5.57;;;2.63;;
3597;SDS011;1813;52.016;8.714;2023-04-30T14:48:38;7.70;;;2.80;;
3597;SDS011;1813;52.016;8.714;2023-04-30T14:51:12;4.40;;;2.67;;
3597;SDS011;1813;52.016;8.714;2023-04-30T14:53:46;6.47;;;2.50;;
3597;SDS011;1813;52.016;8.714;2023-04-30T14:56:20;7.47;;;3.10;;
3597;SDS011;1813;52.016;8.714;2023-04-30T14:58:56;5.10;;;2.70;;
3597;SDS011;1813;52.016;8.714;2023-04-30T15:01:33;3.93;;;2.27;;
3597;SDS011;1813;52.016;8.714;2023-04-30T15:04:07;6.73;;;2.60;;
3597;SDS011;1813;52.016;8.714;2023-04-30T15:06:41;4.97;;;2.60;;
3597;SDS011;1813;52.016;8.714;2023-04-30T15:09:15;5.47;;;2.80;;
3597;SDS011;1813;52.016;8.714;2023-04-30T15:11:49;7.20;;;3.13;;
3597;SDS011;1813;52.016;8.714;2023-04-30T15:14:25;5.70;;;2.87;;
3597;SDS011;1813;52.016;8.714;2023-04-30T15:17:02;7.63;;;2.93;;
3597;SDS011;1813;52.016;8.714;2023-04-30T15:19:36;6.33;;;2.53;;
3597;SDS011;1813;52.016;8.714;2023-04-30T15:22:10;9.07;;;3.00;;
3597;SDS011;1813;52.016;8.714;2023-04-30T15:24:45;8.00;;;2.90;;
3597;SDS011;1813;52.016;8.714;2023-04-30T15:27:20;5.67;;;2.73;;
3597;SDS011;1813;52.016;8.714;2023-04-30T15:29:54;5.33;;;2.97;;
3597;SDS011;1813;52.016;8.714;2023-04-30T15:32:31;5.40;;;2.80;;
3597;SDS011;1813;52.016;8.714;2023-04-30T15:35:06;12.23;;;2.90;;
3597;SDS011;1813;52.016;8.714;2023-04-30T15:37:40;6.00;;;2.70;;
3597;SDS011;1813;52.016;8.714;2023-04-30T15:40:14;6.20;;;2.40;;
3597;SDS011;1813;52.016;8.714;2023-04-30T15:42:49;7.10;;;2.73;;
3597;SDS011;1813;52.016;8.714;2023-04-30T15:45:24;4.83;;;2.50;;
3597;SDS011;1813;52.016;8.714;2023-04-30T15:48:02;5.90;;;2.63;;
3597;SDS011;1813;52.016;8.714;2023-04-30T15:50:37;6.70;;;2.60;;
3597;SDS011;1813;52.016;8.714;2023-04-30T15:53:11;5.83;;;2.60;;
3597;SDS011;1813;52.016;8.714;2023-04-30T15:55:46;5.10;;;2.80;;
3597;SDS011;1813;52.016;8.714;2023-04-30T15:58:21;8.17;;;3.10;;
3597;SDS011;1813;52.016;8.714;2023-04-30T16:00:55;9.97;;;3.00;;
3597;SDS011;1813;52.016;8.714;2023-04-30T16:03:33;5.53;;;2.87;;
3597;SDS011;1813;52.016;8.714;2023-04-30T16:06:07;7.73;;;2.60;;